createdAt,value
2022-09-29T04:14:38.841Z,6.60
2022-09-29T04:17:05.576Z,6.80
2022-09-29T04:19:32.321Z,6.70
2022-09-29T04:21:59.189Z,6.60
2022-09-29T04:24:26.234Z,6.60
2022-09-29T04:26:53.006Z,6.60
2022-09-29T04:29:19.752Z,6.40
2022-09-29T04:31:46.596Z,6.40
2022-09-29T04:34:13.279Z,6.40
2022-09-29T04:36:41.090Z,6.50
2022-09-29T04:39:07.877Z,6.50
2022-09-29T04:41:36.054Z,6.50
2022-09-29T04:44:02.813Z,6.30
2022-09-29T04:46:29.910Z,6.30
2022-09-29T04:48:56.635Z,6.30
2022-09-29T04:51:23.434Z,6.30
2022-09-29T04:53:50.148Z,6.30
2022-09-29T04:56:16.833Z,6.30
2022-09-29T04:58:43.563Z,6.20
2022-09-29T05:01:15.277Z,6.30
2022-09-29T05:03:42.556Z,6.30
2022-09-29T05:06:10.159Z,6.20
2022-09-29T05:26:14.478Z,6.10
2022-09-29T05:31:14.369Z,6.30
2022-09-29T05:33:41.435Z,6.30
2022-09-29T05:36:11.016Z,6.30
2022-09-29T05:38:38.491Z,6.30
2022-09-29T05:41:12.086Z,6.30
2022-09-29T05:43:39.812Z,6.30
2022-09-29T05:46:10.676Z,6.10
2022-09-29T05:48:38.192Z,6.30
2022-09-29T05:51:11.554Z,6.20
2022-09-29T06:03:37.774Z,6.20
2022-09-29T06:06:14.036Z,6.10
2022-09-29T06:13:45.120Z,6.00
2022-09-29T06:16:12.920Z,6.10
2022-09-29T06:21:14.759Z,6.20
2022-09-29T06:26:11.079Z,6.30
2022-09-29T06:31:09.481Z,6.50
2022-09-29T06:33:36.963Z,6.60
